sensor_id;sensor_type;location;lat;lon;timestamp;P1;durP1;ratioP1;P2;durP2;ratioP2
76765;SDS011;65707;52.362;6.588;2023-08-08T00:01:44;9.73;;;2.97;;
76765;SDS011;65707;52.362;6.588;2023-08-08T00:04:11;7.20;;;2.63;;
76765;SDS011;65707;52.362;6.588;2023-08-08T00:06:38;9.40;;;3.10;;
76765;SDS011;65707;52.362;6.588;2023-08-08T00:09:05;6.40;;;2.78;;
76765;SDS011;65707;52.362;6.588;2023-08-08T00:11:32;11.55;;;3.35;;
76765;SDS011;65707;52.362;6.588;2023-08-08T00:13:59;9.43;;;3.10;;
76765;SDS011;65707;52.362;6.588;2023-08-08T00:16:25;8.90;;;3.25;;
76765;SDS011;65707;52.362;6.588;2023-08-08T00:18:54;8.20;;;3.30;;
76765;SDS011;65707;52.362;6.588;2023-08-08T00:21:20;11.05;;;3.03;;
76765;SDS011;65707;52.362;6.588;2023-08-08T00:23:47;8.00;;;3.15;;
76765;SDS011;65707;52.362;6.588;2023-08-08T00:26:14;12.00;;;3.55;;
76765;SDS011;65707;52.362;6.588;2023-08-08T00:28:41;8.18;;;3.03;;
76765;SDS011;65707;52.362;6.588;2023-08-08T00:31:08;9.32;;;3.17;;
76765;SDS011;65707;52.362;6.588;2023-08-08T00:33:35;10.52;;;3.30;;
76765;SDS011;65707;52.362;6.588;2023-08-08T00:36:03;10.00;;;3.35;;
76765;SDS011;65707;52.362;6.588;2023-08-08T00:38:30;12.20;;;3.50;;
76765;SDS011;65707;52.362;6.588;2023-08-08T00:40:56;12.15;;;3.90;;
76765;SDS011;65707;52.362;6.588;2023-08-08T00:43:23;10.80;;;3.70;;
76765;SDS011;65707;52.362;6.588;2023-08-08T00:45:50;11.63;;;3.47;;
76765;SDS011;65707;52.362;6.588;2023-08-08T00:48:17;10.88;;;3.95;;
76765;SDS011;65707;52.362;6.588;2023-08-08T00:50:44;10.52;;;3.40;;
76765;SDS011;65707;52.362;6.588;2023-08-08T00:53:13;11.85;;;3.90;;
76765;SDS011;65707;52.362;6.588;2023-08-08T00:55:41;9.50;;;3.45;;
76765;SDS011;65707;52.362;6.588;2023-08-08T00:58:08;9.23;;;3.85;;
76765;SDS011;65707;52.362;6.588;2023-08-08T01:00:36;10.50;;;4.35;;
76765;SDS011;65707;52.362;6.588;2023-08-08T01:03:03;9.18;;;3.85;;
76765;SDS011;65707;52.362;6.588;2023-08-08T01:05:32;9.02;;;3.53;;
76765;SDS011;65707;52.362;6.588;2023-08-08T01:08:07;8.88;;;3.63;;
76765;SDS011;65707;52.362;6.588;2023-08-08T01:10:36;10.30;;;3.95;;
76765;SDS011;65707;52.362;6.588;2023-08-08T01:13:08;12.23;;;3.83;;
76765;SDS011;65707;52.362;6.588;2023-08-08T01:15:41;9.82;;;3.67;;
76765;SDS011;65707;52.362;6.588;2023-08-08T01:18:09;12.75;;;4.25;;
76765;SDS011;65707;52.362;6.588;2023-08-08T01:20:39;12.73;;;4.82;;
76765;SDS011;65707;52.362;6.588;2023-08-08T01:23:09;10.05;;;3.88;;
76765;SDS011;65707;52.362;6.588;2023-08-08T01:25:44;13.40;;;3.90;;
76765;SDS011;65707;52.362;6.588;2023-08-08T01:28:12;11.30;;;4.55;;
76765;SDS011;65707;52.362;6.588;2023-08-08T01:30:39;14.50;;;4.55;;
76765;SDS011;65707;52.362;6.588;2023-08-08T01:33:07;14.88;;;4.40;;
76765;SDS011;65707;52.362;6.588;2023-08-08T01:35:36;12.60;;;4.20;;
76765;SDS011;65707;52.362;6.588;2023-08-08T01:38:09;11.93;;;4.15;;
76765;SDS011;65707;52.362;6.588;2023-08-08T01:40:48;11.35;;;4.00;;
76765;SDS011;65707;52.362;6.588;2023-08-08T01:43:15;11.52;;;4.00;;
76765;SDS011;65707;52.362;6.588;2023-08-08T01:45:44;17.58;;;3.95;;
76765;SDS011;65707;52.362;6.588;2023-08-08T01:48:11;11.30;;;4.05;;
76765;SDS011;65707;52.362;6.588;2023-08-08T01:50:38;13.43;;;4.07;;
76765;SDS011;65707;52.362;6.588;2023-08-08T01:53:05;14.00;;;3.88;;
76765;SDS011;65707;52.362;6.588;2023-08-08T01:55:32;9.55;;;3.88;;
76765;SDS011;65707;52.362;6.588;2023-08-08T01:58:00;10.77;;;3.63;;
76765;SDS011;65707;52.362;6.588;2023-08-08T02:00:27;12.02;;;3.58;;
76765;SDS011;65707;52.362;6.588;2023-08-08T02:02:53;13.18;;;4.40;;
76765;SDS011;65707;52.362;6.588;2023-08-08T02:05:20;10.88;;;4.00;;
76765;SDS011;65707;52.362;6.588;2023-08-08T02:07:47;14.48;;;4.05;;
76765;SDS011;65707;52.362;6.588;2023-08-08T02:10:14;12.85;;;4.38;;
76765;SDS011;65707;52.362;6.588;2023-08-08T02:12:41;13.73;;;4.22;;
76765;SDS011;65707;52.362;6.588;2023-08-08T02:15:09;11.43;;;4.20;;
76765;SDS011;65707;52.362;6.588;2023-08-08T02:17:37;13.48;;;4.43;;
76765;SDS011;65707;52.362;6.588;2023-08-08T02:20:04;10.93;;;4.30;;
76765;SDS011;65707;52.362;6.588;2023-08-08T02:22:33;17.05;;;4.70;;
76765;SDS011;65707;52.362;6.588;2023-08-08T02:25:00;9.60;;;4.25;;
76765;SDS011;65707;52.362;6.588;2023-08-08T02:27:26;20.40;;;5.10;;
76765;SDS011;65707;52.362;6.588;2023-08-08T02:29:53;14.23;;;4.55;;
76765;SDS011;65707;52.362;6.588;2023-08-08T02:32:21;15.38;;;4.95;;
76765;SDS011;65707;52.362;6.588;2023-08-08T02:34:48;15.98;;;5.00;;
76765;SDS011;65707;52.362;6.588;2023-08-08T02:37:15;10.15;;;4.07;;
76765;SDS011;65707;52.362;6.588;2023-08-08T02:39:42;13.57;;;4.47;;
76765;SDS011;65707;52.362;6.588;2023-08-08T02:42:10;13.30;;;4.60;;
76765;SDS011;65707;52.362;6.588;2023-08-08T02:44:37;14.82;;;4.65;;
76765;SDS011;65707;52.362;6.588;2023-08-08T02:47:04;15.57;;;5.10;;
76765;SDS011;65707;52.362;6.588;2023-08-08T02:49:32;14.93;;;4.15;;
76765;SDS011;65707;52.362;6.588;2023-08-08T02:51:59;14.10;;;4.75;;
76765;SDS011;65707;52.362;6.588;2023-08-08T02:54:26;16.27;;;5.10;;
76765;SDS011;65707;52.362;6.588;2023-08-08T02:56:53;14.20;;;4.72;;
76765;SDS011;65707;52.362;6.588;2023-08-08T02:59:20;13.20;;;4.50;;
76765;SDS011;65707;52.362;6.588;2023-08-08T03:01:47;12.88;;;4.82;;
76765;SDS011;65707;52.362;6.588;2023-08-08T03:04:14;16.35;;;4.80;;
76765;SDS011;65707;52.362;6.588;2023-08-08T03:06:42;14.88;;;4.25;;
76765;SDS011;65707;52.362;6.588;2023-08-08T03:09:09;16.40;;;4.22;;
76765;SDS011;65707;52.362;6.588;2023-08-08T03:11:35;14.55;;;4.18;;
76765;SDS011;65707;52.362;6.588;2023-08-08T03:14:06;13.45;;;4.38;;
76765;SDS011;65707;52.362;6.588;2023-08-08T03:16:33;13.95;;;4.40;;
76765;SDS011;65707;52.362;6.588;2023-08-08T03:19:00;15.65;;;4.25;;
76765;SDS011;65707;52.362;6.588;2023-08-08T03:21:27;11.38;;;4.05;;
76765;SDS011;65707;52.362;6.588;2023-08-08T03:23:55;13.38;;;4.25;;
76765;SDS011;65707;52.362;6.588;2023-08-08T03:26:23;13.52;;;4.32;;
76765;SDS011;65707;52.362;6.588;2023-08-08T03:28:50;13.75;;;4.20;;
76765;SDS011;65707;52.362;6.588;2023-08-08T03:31:18;14.15;;;4.68;;
76765;SDS011;65707;52.362;6.588;2023-08-08T03:33:45;13.20;;;3.90;;
76765;SDS011;65707;52.362;6.588;2023-08-08T03:36:12;17.00;;;4.55;;
76765;SDS011;65707;52.362;6.588;2023-08-08T03:38:39;13.07;;;4.43;;
76765;SDS011;65707;52.362;6.588;2023-08-08T03:41:10;13.07;;;4.30;;
76765;SDS011;65707;52.362;6.588;2023-08-08T03:43:38;12.98;;;4.30;;
76765;SDS011;65707;52.362;6.588;2023-08-08T03:46:05;13.45;;;4.35;;
76765;SDS011;65707;52.362;6.588;2023-08-08T03:48:32;13.10;;;4.45;;
76765;SDS011;65707;52.362;6.588;2023-08-08T03:50:59;13.25;;;5.00;;
76765;SDS011;65707;52.362;6.588;2023-08-08T03:53:26;20.33;;;4.72;;
76765;SDS011;65707;52.362;6.588;2023-08-08T03:55:53;13.15;;;4.45;;
76765;SDS011;65707;52.362;6.588;2023-08-08T03:58:21;14.52;;;5.03;;
76765;SDS011;65707;52.362;6.588;2023-08-08T04:00:47;15.77;;;4.60;;
76765;SDS011;65707;52.362;6.588;2023-08-08T04:03:15;15.43;;;4.60;;
76765;SDS011;65707;52.362;6.588;2023-08-08T04:05:43;14.32;;;4.35;;
76765;SDS011;65707;52.362;6.588;2023-08-08T04:08:11;20.00;;;5.63;;
76765;SDS011;65707;52.362;6.588;2023-08-08T04:10:38;16.95;;;4.90;;
76765;SDS011;65707;52.362;6.588;2023-08-08T04:13:05;19.60;;;5.22;;
76765;SDS011;65707;52.362;6.588;2023-08-08T04:15:33;16.45;;;4.93;;
76765;SDS011;65707;52.362;6.588;2023-08-08T04:18:00;18.13;;;4.65;;
76765;SDS011;65707;52.362;6.588;2023-08-08T04:20:27;15.38;;;5.00;;
76765;SDS011;65707;52.362;6.588;2023-08-08T04:22:54;11.95;;;4.43;;
76765;SDS011;65707;52.362;6.588;2023-08-08T04:25:20;10.68;;;4.10;;
76765;SDS011;65707;52.362;6.588;2023-08-08T04:27:48;12.07;;;4.05;;
76765;SDS011;65707;52.362;6.588;2023-08-08T04:30:14;14.63;;;4.75;;
76765;SDS011;65707;52.362;6.588;2023-08-08T04:32:43;15.13;;;4.07;;
76765;SDS011;65707;52.362;6.588;2023-08-08T04:35:09;15.88;;;4.28;;
76765;SDS011;65707;52.362;6.588;2023-08-08T04:37:36;19.58;;;4.45;;
76765;SDS011;65707;52.362;6.588;2023-08-08T04:40:03;15.73;;;4.35;;
76765;SDS011;65707;52.362;6.588;2023-08-08T04:42:33;12.90;;;3.85;;
76765;SDS011;65707;52.362;6.588;2023-08-08T04:45:00;15.70;;;4.30;;
76765;SDS011;65707;52.362;6.588;2023-08-08T04:47:27;11.80;;;3.67;;
76765;SDS011;65707;52.362;6.588;2023-08-08T04:49:55;14.98;;;4.13;;
76765;SDS011;65707;52.362;6.588;2023-08-08T04:52:22;13.90;;;4.03;;
76765;SDS011;65707;52.362;6.588;2023-08-08T04:54:48;14.65;;;3.80;;
76765;SDS011;65707;52.362;6.588;2023-08-08T04:57:15;15.10;;;4.07;;
76765;SDS011;65707;52.362;6.588;2023-08-08T04:59:42;17.15;;;3.80;;
76765;SDS011;65707;52.362;6.588;2023-08-08T05:02:09;15.27;;;3.55;;
76765;SDS011;65707;52.362;6.588;2023-08-08T05:04:36;12.55;;;3.58;;
76765;SDS011;65707;52.362;6.588;2023-08-08T05:07:04;13.07;;;3.78;;
76765;SDS011;65707;52.362;6.588;2023-08-08T05:09:31;16.98;;;3.42;;
76765;SDS011;65707;52.362;6.588;2023-08-08T05:11:57;10.63;;;3.20;;
76765;SDS011;65707;52.362;6.588;2023-08-08T05:14:24;10.63;;;3.30;;
76765;SDS011;65707;52.362;6.588;2023-08-08T05:16:51;13.68;;;3.33;;
76765;SDS011;65707;52.362;6.588;2023-08-08T05:19:18;11.40;;;3.55;;
76765;SDS011;65707;52.362;6.588;2023-08-08T05:21:45;10.57;;;3.33;;
76765;SDS011;65707;52.362;6.588;2023-08-08T05:24:13;12.45;;;3.42;;
76765;SDS011;65707;52.362;6.588;2023-08-08T05:26:40;10.48;;;2.97;;
76765;SDS011;65707;52.362;6.588;2023-08-08T05:29:06;14.73;;;3.22;;
76765;SDS011;65707;52.362;6.588;2023-08-08T05:31:33;11.63;;;2.85;;
76765;SDS011;65707;52.362;6.588;2023-08-08T05:34:00;11.90;;;3.13;;
76765;SDS011;65707;52.362;6.588;2023-08-08T05:36:27;8.27;;;2.88;;
76765;SDS011;65707;52.362;6.588;2023-08-08T05:38:53;13.65;;;2.90;;
76765;SDS011;65707;52.362;6.588;2023-08-08T05:41:22;13.10;;;3.00;;
76765;SDS011;65707;52.362;6.588;2023-08-08T05:43:48;9.20;;;2.90;;
76765;SDS011;65707;52.362;6.588;2023-08-08T05:46:15;11.55;;;2.90;;
76765;SDS011;65707;52.362;6.588;2023-08-08T05:48:42;10.60;;;2.78;;
76765;SDS011;65707;52.362;6.588;2023-08-08T05:51:09;10.57;;;2.75;;
76765;SDS011;65707;52.362;6.588;2023-08-08T05:53:35;13.05;;;2.83;;
76765;SDS011;65707;52.362;6.588;2023-08-08T05:56:03;8.35;;;2.67;;
76765;SDS011;65707;52.362;6.588;2023-08-08T05:58:31;8.15;;;2.60;;
76765;SDS011;65707;52.362;6.588;2023-08-08T06:00:58;8.98;;;2.70;;
76765;SDS011;65707;52.362;6.588;2023-08-08T06:03:25;9.93;;;3.22;;
76765;SDS011;65707;52.362;6.588;2023-08-08T06:05:52;7.80;;;2.35;;
76765;SDS011;65707;52.362;6.588;2023-08-08T06:08:19;8.70;;;2.60;;
76765;SDS011;65707;52.362;6.588;2023-08-08T06:10:46;12.73;;;2.88;;
76765;SDS011;65707;52.362;6.588;2023-08-08T06:13:13;10.35;;;2.53;;
76765;SDS011;65707;52.362;6.588;2023-08-08T06:15:41;10.85;;;2.83;;
76765;SDS011;65707;52.362;6.588;2023-08-08T06:18:08;10.50;;;2.75;;
76765;SDS011;65707;52.362;6.588;2023-08-08T06:20:34;10.77;;;2.90;;
76765;SDS011;65707;52.362;6.588;2023-08-08T06:23:01;9.70;;;2.33;;
76765;SDS011;65707;52.362;6.588;2023-08-08T06:25:28;10.35;;;2.80;;
76765;SDS011;65707;52.362;6.588;2023-08-08T06:27:55;10.90;;;2.38;;
76765;SDS011;65707;52.362;6.588;2023-08-08T06:30:22;6.70;;;2.00;;
76765;SDS011;65707;52.362;6.588;2023-08-08T06:32:50;9.07;;;2.40;;
76765;SDS011;65707;52.362;6.588;2023-08-08T06:35:17;10.85;;;2.60;;
76765;SDS011;65707;52.362;6.588;2023-08-08T06:37:44;6.63;;;1.83;;
76765;SDS011;65707;52.362;6.588;2023-08-08T06:40:11;8.57;;;1.60;;
76765;SDS011;65707;52.362;6.588;2023-08-08T06:42:39;8.90;;;2.17;;
76765;SDS011;65707;52.362;6.588;2023-08-08T06:45:06;8.80;;;2.15;;
76765;SDS011;65707;52.362;6.588;2023-08-08T06:47:35;13.05;;;2.17;;
76765;SDS011;65707;52.362;6.588;2023-08-08T06:50:04;12.25;;;2.10;;
76765;SDS011;65707;52.362;6.588;2023-08-08T06:52:33;12.93;;;2.05;;
76765;SDS011;65707;52.362;6.588;2023-08-08T06:55:00;7.25;;;1.70;;
76765;SDS011;65707;52.362;6.588;2023-08-08T06:57:27;6.22;;;1.65;;
76765;SDS011;65707;52.362;6.588;2023-08-08T06:59:56;7.25;;;1.52;;
76765;SDS011;65707;52.362;6.588;2023-08-08T07:02:23;10.13;;;2.15;;
76765;SDS011;65707;52.362;6.588;2023-08-08T07:04:49;14.90;;;1.80;;
76765;SDS011;65707;52.362;6.588;2023-08-08T07:07:17;8.18;;;1.77;;
76765;SDS011;65707;52.362;6.588;2023-08-08T07:09:44;6.88;;;1.40;;
76765;SDS011;65707;52.362;6.588;2023-08-08T07:12:11;7.63;;;1.58;;
76765;SDS011;65707;52.362;6.588;2023-08-08T07:14:38;7.55;;;1.70;;
76765;SDS011;65707;52.362;6.588;2023-08-08T07:17:04;9.73;;;1.67;;
76765;SDS011;65707;52.362;6.588;2023-08-08T07:19:31;6.70;;;1.58;;
76765;SDS011;65707;52.362;6.588;2023-08-08T07:21:58;6.55;;;1.13;;
76765;SDS011;65707;52.362;6.588;2023-08-08T07:24:26;6.18;;;1.20;;
76765;SDS011;65707;52.362;6.588;2023-08-08T07:26:53;5.88;;;1.30;;
76765;SDS011;65707;52.362;6.588;2023-08-08T07:29:20;6.65;;;1.40;;
76765;SDS011;65707;52.362;6.588;2023-08-08T07:31:47;8.68;;;1.63;;
76765;SDS011;65707;52.362;6.588;2023-08-08T07:34:14;6.70;;;1.30;;
76765;SDS011;65707;52.362;6.588;2023-08-08T07:36:40;8.35;;;1.80;;
76765;SDS011;65707;52.362;6.588;2023-08-08T07:39:07;6.65;;;1.30;;
76765;SDS011;65707;52.362;6.588;2023-08-08T07:41:36;5.75;;;1.40;;
76765;SDS011;65707;52.362;6.588;2023-08-08T07:44:03;5.43;;;1.20;;
76765;SDS011;65707;52.362;6.588;2023-08-08T07:46:31;5.22;;;1.20;;
76765;SDS011;65707;52.362;6.588;2023-08-08T07:48:59;6.25;;;1.30;;
76765;SDS011;65707;52.362;6.588;2023-08-08T07:51:28;7.53;;;1.27;;
76765;SDS011;65707;52.362;6.588;2023-08-08T07:53:56;5.15;;;1.10;;
76765;SDS011;65707;52.362;6.588;2023-08-08T07:56:23;6.15;;;1.15;;
76765;SDS011;65707;52.362;6.588;2023-08-08T07:58:51;5.63;;;1.05;;
76765;SDS011;65707;52.362;6.588;2023-08-08T08:01:18;5.68;;;1.10;;
76765;SDS011;65707;52.362;6.588;2023-08-08T08:03:45;4.97;;;1.05;;
76765;SDS011;65707;52.362;6.588;2023-08-08T08:06:12;6.68;;;1.25;;
76765;SDS011;65707;52.362;6.588;2023-08-08T08:08:38;6.63;;;1.20;;
76765;SDS011;65707;52.362;6.588;2023-08-08T08:11:05;7.85;;;1.20;;
76765;SDS011;65707;52.362;6.588;2023-08-08T08:13:32;6.05;;;1.05;;
76765;SDS011;65707;52.362;6.588;2023-08-08T08:16:00;7.90;;;1.05;;
76765;SDS011;65707;52.362;6.588;2023-08-08T08:18:27;7.07;;;1.30;;
76765;SDS011;65707;52.362;6.588;2023-08-08T08:20:55;8.15;;;1.55;;
76765;SDS011;65707;52.362;6.588;2023-08-08T08:23:22;5.38;;;1.23;;
76765;SDS011;65707;52.362;6.588;2023-08-08T08:25:48;8.90;;;1.30;;
76765;SDS011;65707;52.362;6.588;2023-08-08T08:28:15;9.25;;;1.52;;
76765;SDS011;65707;52.362;6.588;2023-08-08T08:30:42;5.57;;;1.20;;
76765;SDS011;65707;52.362;6.588;2023-08-08T08:33:10;6.40;;;1.55;;
76765;SDS011;65707;52.362;6.588;2023-08-08T08:35:37;5.97;;;1.45;;
76765;SDS011;65707;52.362;6.588;2023-08-08T08:38:04;5.40;;;1.13;;
76765;SDS011;65707;52.362;6.588;2023-08-08T08:40:31;5.53;;;1.30;;
76765;SDS011;65707;52.362;6.588;2023-08-08T08:43:04;7.18;;;1.40;;
76765;SDS011;65707;52.362;6.588;2023-08-08T08:45:33;9.35;;;1.50;;
76765;SDS011;65707;52.362;6.588;2023-08-08T08:48:05;7.57;;;1.20;;
76765;SDS011;65707;52.362;6.588;2023-08-08T08:50:38;6.05;;;1.40;;
76765;SDS011;65707;52.362;6.588;2023-08-08T08:53:05;5.80;;;1.13;;
76765;SDS011;65707;52.362;6.588;2023-08-08T08:55:33;8.13;;;1.20;;
76765;SDS011;65707;52.362;6.588;2023-08-08T08:58:00;4.63;;;0.98;;
76765;SDS011;65707;52.362;6.588;2023-08-08T09:00:28;7.40;;;1.20;;
76765;SDS011;65707;52.362;6.588;2023-08-08T09:02:56;8.23;;;1.30;;
76765;SDS011;65707;52.362;6.588;2023-08-08T09:05:24;7.55;;;1.10;;
76765;SDS011;65707;52.362;6.588;2023-08-08T09:07:53;4.47;;;1.10;;
76765;SDS011;65707;52.362;6.588;2023-08-08T09:10:20;5.07;;;1.10;;
76765;SDS011;65707;52.362;6.588;2023-08-08T09:12:47;6.03;;;1.17;;
76765;SDS011;65707;52.362;6.588;2023-08-08T09:15:15;6.63;;;1.10;;
76765;SDS011;65707;52.362;6.588;2023-08-08T09:17:42;5.30;;;1.00;;
76765;SDS011;65707;52.362;6.588;2023-08-08T09:20:11;6.55;;;1.00;;
76765;SDS011;65707;52.362;6.588;2023-08-08T09:22:39;5.80;;;1.30;;
76765;SDS011;65707;52.362;6.588;2023-08-08T09:25:08;4.63;;;1.25;;
76765;SDS011;65707;52.362;6.588;2023-08-08T09:27:34;4.80;;;1.00;;
76765;SDS011;65707;52.362;6.588;2023-08-08T09:30:02;4.93;;;1.20;;
76765;SDS011;65707;52.362;6.588;2023-08-08T09:32:31;5.65;;;1.08;;
76765;SDS011;65707;52.362;6.588;2023-08-08T09:34:58;6.05;;;1.30;;
76765;SDS011;65707;52.362;6.588;2023-08-08T09:37:25;5.93;;;0.93;;
76765;SDS011;65707;52.362;6.588;2023-08-08T09:39:56;5.95;;;1.20;;
76765;SDS011;65707;52.362;6.588;2023-08-08T09:42:26;6.50;;;1.52;;
76765;SDS011;65707;52.362;6.588;2023-08-08T09:44:54;8.32;;;1.20;;
76765;SDS011;65707;52.362;6.588;2023-08-08T09:47:23;5.25;;;0.95;;
76765;SDS011;65707;52.362;6.588;2023-08-08T09:49:55;12.35;;;1.77;;
76765;SDS011;65707;52.362;6.588;2023-08-08T09:52:26;18.30;;;7.72;;
76765;SDS011;65707;52.362;6.588;2023-08-08T09:54:54;13.98;;;5.38;;
76765;SDS011;65707;52.362;6.588;2023-08-08T09:57:22;8.27;;;1.58;;
76765;SDS011;65707;52.362;6.588;2023-08-08T09:59:52;6.03;;;1.40;;
76765;SDS011;65707;52.362;6.588;2023-08-08T10:02:19;6.38;;;1.30;;
76765;SDS011;65707;52.362;6.588;2023-08-08T10:04:46;9.68;;;1.85;;
76765;SDS011;65707;52.362;6.588;2023-08-08T10:07:13;5.18;;;1.30;;
76765;SDS011;65707;52.362;6.588;2023-08-08T10:09:40;6.75;;;2.00;;
76765;SDS011;65707;52.362;6.588;2023-08-08T10:12:08;5.50;;;1.35;;
76765;SDS011;65707;52.362;6.588;2023-08-08T10:14:41;8.60;;;1.30;;
76765;SDS011;65707;52.362;6.588;2023-08-08T10:17:13;5.82;;;1.38;;
76765;SDS011;65707;52.362;6.588;2023-08-08T10:19:49;6.70;;;1.38;;
76765;SDS011;65707;52.362;6.588;2023-08-08T10:22:20;4.72;;;0.80;;
76765;SDS011;65707;52.362;6.588;2023-08-08T10:24:51;6.43;;;1.30;;
76765;SDS011;65707;52.362;6.588;2023-08-08T10:27:28;6.15;;;1.10;;
76765;SDS011;65707;52.362;6.588;2023-08-08T10:30:02;8.60;;;1.30;;
76765;SDS011;65707;52.362;6.588;2023-08-08T10:32:39;5.68;;;1.15;;
76765;SDS011;65707;52.362;6.588;2023-08-08T10:35:07;3.72;;;0.80;;
76765;SDS011;65707;52.362;6.588;2023-08-08T10:37:37;6.13;;;1.00;;
76765;SDS011;65707;52.362;6.588;2023-08-08T10:40:05;4.75;;;0.90;;
76765;SDS011;65707;52.362;6.588;2023-08-08T10:42:40;3.50;;;0.80;;
76765;SDS011;65707;52.362;6.588;2023-08-08T10:45:09;5.40;;;1.00;;
76765;SDS011;65707;52.362;6.588;2023-08-08T10:47:41;7.28;;;1.15;;
76765;SDS011;65707;52.362;6.588;2023-08-08T10:50:10;5.45;;;1.25;;
76765;SDS011;65707;52.362;6.588;2023-08-08T10:52:52;4.50;;;0.90;;
76765;SDS011;65707;52.362;6.588;2023-08-08T10:55:21;5.95;;;0.90;;
76765;SDS011;65707;52.362;6.588;2023-08-08T11:00:23;5.03;;;1.00;;
76765;SDS011;65707;52.362;6.588;2023-08-08T11:02:53;4.80;;;0.75;;
76765;SDS011;65707;52.362;6.588;2023-08-08T11:05:21;4.13;;;0.70;;
76765;SDS011;65707;52.362;6.588;2023-08-08T11:07:49;5.78;;;0.70;;
76765;SDS011;65707;52.362;6.588;2023-08-08T11:10:16;5.22;;;0.93;;
76765;SDS011;65707;52.362;6.588;2023-08-08T11:12:52;3.60;;;0.70;;
76765;SDS011;65707;52.362;6.588;2023-08-08T11:15:22;3.30;;;0.80;;
76765;SDS011;65707;52.362;6.588;2023-08-08T11:17:49;6.45;;;1.05;;
76765;SDS011;65707;52.362;6.588;2023-08-08T11:20:19;4.18;;;0.80;;
76765;SDS011;65707;52.362;6.588;2023-08-08T11:22:50;4.60;;;1.00;;
76765;SDS011;65707;52.362;6.588;2023-08-08T11:25:18;3.35;;;0.90;;
76765;SDS011;65707;52.362;6.588;2023-08-08T11:27:49;4.63;;;0.90;;
76765;SDS011;65707;52.362;6.588;2023-08-08T11:30:17;5.80;;;0.98;;
76765;SDS011;65707;52.362;6.588;2023-08-08T11:32:45;4.60;;;1.10;;
76765;SDS011;65707;52.362;6.588;2023-08-08T11:35:15;3.13;;;0.80;;
76765;SDS011;65707;52.362;6.588;2023-08-08T11:37:45;6.40;;;0.98;;
76765;SDS011;65707;52.362;6.588;2023-08-08T11:40:12;4.47;;;0.77;;
76765;SDS011;65707;52.362;6.588;2023-08-08T11:42:41;7.28;;;1.08;;
76765;SDS011;65707;52.362;6.588;2023-08-08T11:47:37;4.22;;;0.88;;
76765;SDS011;65707;52.362;6.588;2023-08-08T11:50:05;6.65;;;1.10;;
76765;SDS011;65707;52.362;6.588;2023-08-08T11:52:34;4.75;;;1.13;;
76765;SDS011;65707;52.362;6.588;2023-08-08T11:55:07;6.93;;;1.25;;
76765;SDS011;65707;52.362;6.588;2023-08-08T11:57:35;3.35;;;0.85;;
76765;SDS011;65707;52.362;6.588;2023-08-08T12:00:03;4.35;;;0.82;;
76765;SDS011;65707;52.362;6.588;2023-08-08T12:02:32;3.05;;;0.73;;
76765;SDS011;65707;52.362;6.588;2023-08-08T12:05:03;3.20;;;0.77;;
76765;SDS011;65707;52.362;6.588;2023-08-08T12:07:31;4.03;;;0.80;;
76765;SDS011;65707;52.362;6.588;2023-08-08T12:09:59;6.22;;;1.17;;
76765;SDS011;65707;52.362;6.588;2023-08-08T12:12:27;6.55;;;0.90;;
76765;SDS011;65707;52.362;6.588;2023-08-08T12:14:56;6.75;;;0.90;;
76765;SDS011;65707;52.362;6.588;2023-08-08T12:17:23;7.05;;;1.00;;
76765;SDS011;65707;52.362;6.588;2023-08-08T12:19:50;3.88;;;1.10;;
76765;SDS011;65707;52.362;6.588;2023-08-08T12:22:16;3.80;;;0.90;;
76765;SDS011;65707;52.362;6.588;2023-08-08T12:24:43;4.43;;;1.00;;
76765;SDS011;65707;52.362;6.588;2023-08-08T12:27:10;5.18;;;0.88;;
76765;SDS011;65707;52.362;6.588;2023-08-08T12:29:38;3.60;;;0.95;;
76765;SDS011;65707;52.362;6.588;2023-08-08T12:32:05;5.00;;;0.90;;
76765;SDS011;65707;52.362;6.588;2023-08-08T12:34:33;5.00;;;0.80;;
76765;SDS011;65707;52.362;6.588;2023-08-08T12:37:00;3.10;;;0.73;;
76765;SDS011;65707;52.362;6.588;2023-08-08T12:39:27;3.67;;;0.90;;
76765;SDS011;65707;52.362;6.588;2023-08-08T12:41:54;4.93;;;1.00;;
76765;SDS011;65707;52.362;6.588;2023-08-08T12:44:21;5.88;;;0.93;;
76765;SDS011;65707;52.362;6.588;2023-08-08T12:46:49;4.88;;;0.88;;
76765;SDS011;65707;52.362;6.588;2023-08-08T12:49:16;7.15;;;1.00;;
76765;SDS011;65707;52.362;6.588;2023-08-08T12:51:43;5.18;;;0.98;;
76765;SDS011;65707;52.362;6.588;2023-08-08T12:54:10;4.32;;;0.90;;
76765;SDS011;65707;52.362;6.588;2023-08-08T12:56:36;4.50;;;0.90;;
76765;SDS011;65707;52.362;6.588;2023-08-08T12:59:03;5.00;;;1.15;;
76765;SDS011;65707;52.362;6.588;2023-08-08T13:01:30;3.83;;;0.95;;
76765;SDS011;65707;52.362;6.588;2023-08-08T13:03:58;4.45;;;0.82;;
76765;SDS011;65707;52.362;6.588;2023-08-08T13:06:25;4.40;;;1.20;;
76765;SDS011;65707;52.362;6.588;2023-08-08T13:08:52;3.58;;;0.90;;
76765;SDS011;65707;52.362;6.588;2023-08-08T13:11:19;5.35;;;1.00;;
76765;SDS011;65707;52.362;6.588;2023-08-08T13:13:45;4.55;;;0.80;;
76765;SDS011;65707;52.362;6.588;2023-08-08T13:16:12;4.88;;;1.02;;
76765;SDS011;65707;52.362;6.588;2023-08-08T13:18:39;6.85;;;1.10;;
76765;SDS011;65707;52.362;6.588;2023-08-08T13:21:07;4.82;;;0.93;;
76765;SDS011;65707;52.362;6.588;2023-08-08T13:23:35;4.10;;;1.00;;
76765;SDS011;65707;52.362;6.588;2023-08-08T13:26:02;5.30;;;1.02;;
76765;SDS011;65707;52.362;6.588;2023-08-08T13:28:29;5.30;;;1.17;;
76765;SDS011;65707;52.362;6.588;2023-08-08T13:30:56;5.32;;;0.90;;
76765;SDS011;65707;52.362;6.588;2023-08-08T13:33:23;4.10;;;0.98;;
76765;SDS011;65707;52.362;6.588;2023-08-08T13:35:50;4.97;;;1.20;;
76765;SDS011;65707;52.362;6.588;2023-08-08T13:38:18;5.00;;;0.90;;
76765;SDS011;65707;52.362;6.588;2023-08-08T13:40:45;4.10;;;1.08;;
76765;SDS011;65707;52.362;6.588;2023-08-08T13:43:12;5.40;;;1.20;;
76765;SDS011;65707;52.362;6.588;2023-08-08T13:45:39;3.60;;;1.00;;
76765;SDS011;65707;52.362;6.588;2023-08-08T13:48:05;4.82;;;1.02;;
76765;SDS011;65707;52.362;6.588;2023-08-08T13:50:32;4.68;;;1.00;;
76765;SDS011;65707;52.362;6.588;2023-08-08T13:52:59;4.80;;;0.90;;
76765;SDS011;65707;52.362;6.588;2023-08-08T13:55:27;4.82;;;1.08;;
76765;SDS011;65707;52.362;6.588;2023-08-08T13:57:54;5.63;;;1.15;;
76765;SDS011;65707;52.362;6.588;2023-08-08T14:00:22;5.25;;;1.15;;
76765;SDS011;65707;52.362;6.588;2023-08-08T14:02:49;4.53;;;1.10;;
76765;SDS011;65707;52.362;6.588;2023-08-08T14:05:15;4.47;;;0.90;;
76765;SDS011;65707;52.362;6.588;2023-08-08T14:07:42;4.80;;;1.30;;
76765;SDS011;65707;52.362;6.588;2023-08-08T14:10:09;4.55;;;1.05;;
76765;SDS011;65707;52.362;6.588;2023-08-08T14:12:37;5.40;;;1.10;;
76765;SDS011;65707;52.362;6.588;2023-08-08T14:15:04;4.60;;;1.00;;
76765;SDS011;65707;52.362;6.588;2023-08-08T14:17:34;5.35;;;1.13;;
76765;SDS011;65707;52.362;6.588;2023-08-08T14:20:00;7.53;;;1.20;;
76765;SDS011;65707;52.362;6.588;2023-08-08T14:22:27;5.65;;;1.20;;
76765;SDS011;65707;52.362;6.588;2023-08-08T14:24:54;3.22;;;0.80;;
76765;SDS011;65707;52.362;6.588;2023-08-08T14:27:21;7.18;;;1.02;;
76765;SDS011;65707;52.362;6.588;2023-08-08T14:29:50;6.80;;;1.10;;
76765;SDS011;65707;52.362;6.588;2023-08-08T14:32:17;8.23;;;1.33;;
76765;SDS011;65707;52.362;6.588;2023-08-08T14:34:43;6.15;;;0.98;;
76765;SDS011;65707;52.362;6.588;2023-08-08T14:37:10;4.00;;;0.80;;
76765;SDS011;65707;52.362;6.588;2023-08-08T14:39:37;4.45;;;1.00;;
76765;SDS011;65707;52.362;6.588;2023-08-08T14:42:04;6.78;;;1.30;;
76765;SDS011;65707;52.362;6.588;2023-08-08T14:44:31;8.68;;;1.77;;
76765;SDS011;65707;52.362;6.588;2023-08-08T14:46:59;5.25;;;1.38;;
76765;SDS011;65707;52.362;6.588;2023-08-08T14:49:26;7.93;;;1.60;;
76765;SDS011;65707;52.362;6.588;2023-08-08T14:51:53;6.53;;;1.05;;